Time;durP1;ratioP1;P1;durP2;ratioP2;P2;SDS_P1;SDS_P2;PMS_P1;PMS_P2;Temp;Humidity;BMP_temperature;BMP_pressure;BME280_temperature;BME280_humidity;BME280_pressure;Samples;Min_cycle;Max_cycle;Signal;HPM_P1;HPM_P2
2023/04/22 00:00:11;;;;;;;7.35;7.05;;;;;;;;;;4162190;28;20383;-61
2023/04/22 00:02:32;;;;;;;6.95;6.75;;;;;;;;;;4158446;28;20084;-60
2023/04/22 00:04:52;;;;;;;7.25;7.13;;;;;;;;;;4160634;28;20076;-61
2023/04/22 00:07:15;;;;;;;7.60;7.20;;;;;;;;;;4164033;28;20237;-60
2023/04/22 00:09:35;;;;;;;5.95;5.75;;;;;;;;;;4158836;28;20114;-60
2023/04/22 00:11:56;;;;;;;6.30;6.10;;;;;;;;;;4158417;28;20076;-61
2023/04/22 00:14:16;;;;;;;6.03;5.93;;;;;;;;;;4162186;28;20237;-60
2023/04/22 00:16:37;;;;;;;6.03;5.93;;;;;;;;;;4160917;28;20049;-61
2023/04/22 00:18:57;;;;;;;6.40;6.20;;;;;;;;;;4158940;28;20044;-60
2023/04/22 00:21:18;;;;;;;6.43;6.22;;;;;;;;;;4161359;28;20064;-60
2023/04/22 00:23:38;;;;;;;6.63;6.32;;;;;;;;;;4163627;28;20106;-60
2023/04/22 00:25:58;;;;;;;5.57;5.47;;;;;;;;;;4158949;28;20085;-60
2023/04/22 00:28:18;;;;;;;5.20;5.10;;;;;;;;;;4163589;28;20113;-60
2023/04/22 00:30:38;;;;;;;5.47;5.15;;;;;;;;;;4158983;28;20328;-60
2023/04/22 00:32:59;;;;;;;6.43;6.25;;;;;;;;;;4157552;28;20471;-61
2023/04/22 00:35:19;;;;;;;7.07;6.97;;;;;;;;;;4155257;28;20072;-61
2023/04/22 00:37:39;;;;;;;7.03;6.80;;;;;;;;;;4162191;28;20052;-60
2023/04/22 00:39:59;;;;;;;6.72;6.53;;;;;;;;;;4160862;28;20048;-61
2023/04/22 00:42:19;;;;;;;6.20;6.05;;;;;;;;;;4157735;28;20088;-60
2023/04/22 00:44:40;;;;;;;6.25;6.15;;;;;;;;;;4150706;28;20078;-61
2023/04/22 00:47:00;;;;;;;7.22;7.05;;;;;;;;;;4157643;28;20408;-60
2023/04/22 00:49:21;;;;;;;6.22;5.93;;;;;;;;;;4157374;28;20049;-60
2023/04/22 00:51:41;;;;;;;6.10;5.90;;;;;;;;;;4154919;28;20072;-60
2023/04/22 00:54:02;;;;;;;5.22;5.13;;;;;;;;;;4151867;28;20053;-60
2023/04/22 00:56:24;;;;;;;5.78;5.68;;;;;;;;;;4159742;28;20041;-60
2023/04/22 00:58:44;;;;;;;6.47;6.23;;;;;;;;;;4157088;28;20056;-60
2023/04/22 01:01:05;;;;;;;6.85;6.70;;;;;;;;;;4155393;28;20077;-60
2023/04/22 01:03:29;;;;;;;6.95;6.75;;;;;;;;;;4157829;28;20052;-60
2023/04/22 01:05:49;;;;;;;6.95;6.85;;;;;;;;;;4161974;28;20052;-60
2023/04/22 01:08:10;;;;;;;6.88;6.78;;;;;;;;;;4157428;28;20044;-60
2023/04/22 01:10:30;;;;;;;6.53;6.43;;;;;;;;;;4156294;28;20044;-60
2023/04/22 01:12:50;;;;;;;6.57;6.47;;;;;;;;;;4157895;28;20091;-60
2023/04/22 01:15:10;;;;;;;6.03;5.68;;;;;;;;;;4160001;28;20052;-60
2023/04/22 01:17:32;;;;;;;6.22;6.13;;;;;;;;;;4156925;28;20076;-60
2023/04/22 01:19:54;;;;;;;6.72;6.53;;;;;;;;;;4144278;28;20421;-60
2023/04/22 01:22:14;;;;;;;6.55;6.10;;;;;;;;;;4159688;28;20044;-60
2023/04/22 01:24:35;;;;;;;5.47;5.25;;;;;;;;;;4162769;28;20143;-60
2023/04/22 01:26:55;;;;;;;6.43;6.32;;;;;;;;;;4163566;28;20117;-60
2023/04/22 01:29:15;;;;;;;6.47;6.38;;;;;;;;;;4166207;28;20068;-60
2023/04/22 01:31:36;;;;;;;6.55;6.35;;;;;;;;;;4163136;28;20236;-60
2023/04/22 01:33:56;;;;;;;6.00;5.90;;;;;;;;;;4155137;28;20375;-60
2023/04/22 01:36:17;;;;;;;6.38;6.18;;;;;;;;;;4162733;28;20109;-60
2023/04/22 01:38:37;;;;;;;7.35;7.13;;;;;;;;;;4169221;28;20079;-60
2023/04/22 01:40:57;;;;;;;6.43;6.28;;;;;;;;;;4157004;28;20061;-60
2023/04/22 01:43:18;;;;;;;6.00;5.90;;;;;;;;;;4158509;28;20053;-60
2023/04/22 01:45:38;;;;;;;7.05;6.95;;;;;;;;;;4162755;28;20083;-60
2023/04/22 01:47:58;;;;;;;6.50;6.30;;;;;;;;;;4163578;28;20149;-60
2023/04/22 01:50:18;;;;;;;6.80;6.47;;;;;;;;;;4157542;28;20051;-60
2023/04/22 01:52:38;;;;;;;6.93;6.78;;;;;;;;;;4158653;28;20106;-60
2023/04/22 01:54:58;;;;;;;5.53;5.43;;;;;;;;;;4162607;28;20049;-60
2023/04/22 01:57:18;;;;;;;11.25;7.18;;;;;;;;;;4153616;28;20049;-60
2023/04/22 01:59:39;;;;;;;6.40;6.30;;;;;;;;;;4158714;28;20237;-61
2023/04/22 02:02:00;;;;;;;7.25;6.85;;;;;;;;;;4157687;28;20085;-60
2023/04/22 02:04:20;;;;;;;6.70;6.60;;;;;;;;;;4159918;28;20096;-60
2023/04/22 02:06:41;;;;;;;6.45;6.35;;;;;;;;;;4159585;28;20221;-60
2023/04/22 02:09:01;;;;;;;6.35;6.15;;;;;;;;;;4160923;28;20049;-60
2023/04/22 02:11:21;;;;;;;6.57;6.28;;;;;;;;;;4157902;28;20053;-60
2023/04/22 02:13:41;;;;;;;7.18;7.07;;;;;;;;;;4154207;28;20049;-60
2023/04/22 02:16:01;;;;;;;7.40;7.10;;;;;;;;;;4162258;28;20044;-60
2023/04/22 02:18:22;;;;;;;6.63;6.53;;;;;;;;;;4163591;28;20044;-60
2023/04/22 02:20:42;;;;;;;7.25;7.15;;;;;;;;;;4161072;28;20048;-60
2023/04/22 02:23:02;;;;;;;6.28;6.05;;;;;;;;;;4153572;28;20091;-61
2023/04/22 02:25:22;;;;;;;5.65;5.55;;;;;;;;;;4161730;28;20077;-60
2023/04/22 02:27:42;;;;;;;7.75;7.63;;;;;;;;;;4158453;28;20072;-60
2023/04/22 02:30:03;;;;;;;8.48;8.10;;;;;;;;;;4149836;28;20245;-60
2023/04/22 02:32:23;;;;;;;6.95;6.75;;;;;;;;;;4148796;28;20367;-60
2023/04/22 02:34:44;;;;;;;7.00;6.80;;;;;;;;;;4155067;28;20053;-60
2023/04/22 02:37:04;;;;;;;5.65;5.55;;;;;;;;;;4154986;28;20149;-60
2023/04/22 02:39:25;;;;;;;7.07;6.88;;;;;;;;;;4150427;28;20257;-60
2023/04/22 02:41:45;;;;;;;6.70;6.50;;;;;;;;;;4153871;28;20083;-60
2023/04/22 02:44:05;;;;;;;6.40;6.30;;;;;;;;;;4159228;28;20072;-60
2023/04/22 02:46:26;;;;;;;6.63;6.43;;;;;;;;;;4158273;28;20341;-60
2023/04/22 02:48:46;;;;;;;6.30;6.20;;;;;;;;;;4156101;28;20114;-60
2023/04/22 02:51:06;;;;;;;6.65;6.45;;;;;;;;;;4160574;28;20054;-60
2023/04/22 02:53:26;;;;;;;6.10;6.00;;;;;;;;;;4165185;28;20057;-61
2023/04/22 02:55:46;;;;;;;6.43;6.22;;;;;;;;;;4160996;28;20105;-61
2023/04/22 02:58:07;;;;;;;6.60;6.40;;;;;;;;;;4159284;28;20100;-61
2023/04/22 03:00:28;;;;;;;7.50;7.32;;;;;;;;;;4162804;28;20109;-60
2023/04/22 03:02:48;;;;;;;5.88;5.78;;;;;;;;;;4165524;28;20049;-61
2023/04/22 03:05:09;;;;;;;6.18;5.88;;;;;;;;;;4162279;28;20068;-60
2023/04/22 03:07:30;;;;;;;5.55;5.35;;;;;;;;;;4165469;28;20049;-60
2023/04/22 03:09:50;;;;;;;5.97;5.88;;;;;;;;;;4162678;28;20237;-60
2023/04/22 03:12:10;;;;;;;5.20;5.07;;;;;;;;;;4159050;28;20084;-60
2023/04/22 03:14:30;;;;;;;5.18;4.97;;;;;;;;;;4158106;28;20073;-60
2023/04/22 03:16:51;;;;;;;5.18;4.97;;;;;;;;;;4160357;28;20085;-60
2023/04/22 03:19:11;;;;;;;6.43;6.32;;;;;;;;;;4160569;28;20048;-60
2023/04/22 03:21:31;;;;;;;7.10;6.90;;;;;;;;;;4159212;28;20064;-60
2023/04/22 03:23:51;;;;;;;5.75;5.50;;;;;;;;;;4159252;28;20228;-61
2023/04/22 03:26:12;;;;;;;6.13;5.97;;;;;;;;;;4162534;28;20375;-60
2023/04/22 03:28:32;;;;;;;6.78;6.68;;;;;;;;;;4163781;28;20049;-60
2023/04/22 03:30:52;;;;;;;5.80;5.70;;;;;;;;;;4154756;28;20383;-60
2023/04/22 03:33:13;;;;;;;6.53;6.43;;;;;;;;;;4156039;28;20363;-60
2023/04/22 03:35:33;;;;;;;7.07;6.78;;;;;;;;;;4158798;28;20064;-60
2023/04/22 03:37:53;;;;;;;6.20;5.97;;;;;;;;;;4164266;28;20309;-60
2023/04/22 03:40:13;;;;;;;7.63;7.40;;;;;;;;;;4157441;28;20109;-61
2023/04/22 03:42:33;;;;;;;5.78;5.68;;;;;;;;;;4158292;28;20110;-60
2023/04/22 03:44:54;;;;;;;5.15;5.05;;;;;;;;;;4149118;28;20049;-61
2023/04/22 03:47:14;;;;;;;5.60;5.38;;;;;;;;;;4166538;28;20079;-60
2023/04/22 03:49:34;;;;;;;6.50;6.40;;;;;;;;;;4161035;28;20232;-61
2023/04/22 03:51:54;;;;;;;5.85;5.57;;;;;;;;;;4157292;28;20076;-60
2023/04/22 03:54:15;;;;;;;6.47;6.38;;;;;;;;;;4160634;28;20072;-60
2023/04/22 03:56:35;;;;;;;6.28;6.18;;;;;;;;;;4168506;28;20044;-61
2023/04/22 03:58:55;;;;;;;6.47;5.97;;;;;;;;;;4157709;28;20056;-61
2023/04/22 04:01:15;;;;;;;7.57;7.38;;;;;;;;;;4160768;28;20091;-60
2023/04/22 04:03:35;;;;;;;6.07;5.75;;;;;;;;;;4157997;28;20049;-61
2023/04/22 04:05:56;;;;;;;6.90;6.80;;;;;;;;;;4154823;28;20102;-61
2023/04/22 04:08:17;;;;;;;5.38;5.28;;;;;;;;;;4159665;28;20048;-61
2023/04/22 04:10:37;;;;;;;6.97;6.78;;;;;;;;;;4161430;28;20109;-61
2023/04/22 04:12:57;;;;;;;6.18;6.07;;;;;;;;;;4159503;28;20045;-61
2023/04/22 04:15:18;;;;;;;6.95;6.80;;;;;;;;;;4160015;28;20052;-61
2023/04/22 04:17:38;;;;;;;7.10;7.00;;;;;;;;;;4164594;28;20375;-61
2023/04/22 04:19:58;;;;;;;6.32;6.22;;;;;;;;;;4151662;28;20041;-61
2023/04/22 04:22:19;;;;;;;7.43;7.00;;;;;;;;;;4162678;28;20096;-61
2023/04/22 04:24:40;;;;;;;6.93;6.72;;;;;;;;;;4161441;28;20084;-61
2023/04/22 04:27:00;;;;;;;6.85;6.72;;;;;;;;;;4163437;28;20327;-61
2023/04/22 04:29:22;;;;;;;6.55;6.38;;;;;;;;;;4159305;28;20049;-61
2023/04/22 04:31:42;;;;;;;7.20;6.93;;;;;;;;;;4157314;28;20080;-61
2023/04/22 04:34:03;;;;;;;7.40;7.20;;;;;;;;;;4159194;28;20077;-61
2023/04/22 04:36:27;;;;;;;7.32;7.13;;;;;;;;;;4155120;28;20045;-61
2023/04/22 04:38:47;;;;;;;6.65;6.35;;;;;;;;;;4157152;28;20077;-61
2023/04/22 04:41:08;;;;;;;6.70;6.60;;;;;;;;;;4160076;28;20049;-61
2023/04/22 04:43:28;;;;;;;10.60;10.00;;;;;;;;;;4161141;28;20056;-61
2023/04/22 04:45:48;;;;;;;11.38;10.60;;;;;;;;;;4158767;28;20089;-61
2023/04/22 04:48:08;;;;;;;9.32;9.02;;;;;;;;;;4133626;28;20090;-61
2023/04/22 04:50:29;;;;;;;8.27;8.07;;;;;;;;;;4160883;28;20052;-61
2023/04/22 04:52:49;;;;;;;8.10;7.75;;;;;;;;;;4159948;28;20096;-61
2023/04/22 04:55:09;;;;;;;7.97;7.63;;;;;;;;;;4153092;28;20077;-61
2023/04/22 04:57:29;;;;;;;9.75;9.45;;;;;;;;;;4155824;28;20057;-61
2023/04/22 04:59:49;;;;;;;8.10;8.00;;;;;;;;;;4158972;28;20049;-61
2023/04/22 05:02:09;;;;;;;8.75;8.45;;;;;;;;;;4161348;28;20048;-61
2023/04/22 05:04:30;;;;;;;8.38;8.07;;;;;;;;;;4154640;28;20045;-61
2023/04/22 05:06:50;;;;;;;8.57;8.43;;;;;;;;;;4159150;28;20047;-61
2023/04/22 05:09:10;;;;;;;8.43;8.20;;;;;;;;;;4159975;28;20102;-61
2023/04/22 05:11:31;;;;;;;8.32;7.93;;;;;;;;;;4160974;28;20085;-61
2023/04/22 05:13:51;;;;;;;7.88;7.60;;;;;;;;;;4156055;28;20088;-61
2023/04/22 05:16:11;;;;;;;7.22;6.82;;;;;;;;;;4160224;28;20044;-61
2023/04/22 05:18:31;;;;;;;7.15;7.05;;;;;;;;;;4160732;28;20140;-61
2023/04/22 05:20:51;;;;;;;8.23;7.82;;;;;;;;;;4161739;28;20368;-61
2023/04/22 05:23:12;;;;;;;7.63;7.43;;;;;;;;;;4159776;28;20045;-61
2023/04/22 05:25:32;;;;;;;7.50;7.10;;;;;;;;;;4160783;28;20229;-61
2023/04/22 05:27:52;;;;;;;9.00;8.55;;;;;;;;;;4134577;28;20384;-61
2023/04/22 05:30:12;;;;;;;7.65;7.25;;;;;;;;;;4155447;28;20045;-61
2023/04/22 05:32:33;;;;;;;8.40;8.10;;;;;;;;;;4144705;28;20367;-60
2023/04/22 05:34:53;;;;;;;8.70;8.40;;;;;;;;;;4165485;28;20087;-60
2023/04/22 05:37:13;;;;;;;8.45;8.13;;;;;;;;;;4151451;28;20105;-60
2023/04/22 05:39:33;;;;;;;9.98;9.55;;;;;;;;;;4151698;28;20089;-60
2023/04/22 05:41:53;;;;;;;8.23;8.02;;;;;;;;;;4160987;28;20092;-60
2023/04/22 05:44:13;;;;;;;9.73;9.43;;;;;;;;;;4156337;28;20118;-60
2023/04/22 05:46:34;;;;;;;8.23;7.93;;;;;;;;;;4163800;28;20072;-61
2023/04/22 05:48:55;;;;;;;9.27;8.98;;;;;;;;;;4167776;28;20081;-60
2023/04/22 05:51:15;;;;;;;7.97;7.88;;;;;;;;;;4155282;28;20083;-61
2023/04/22 05:53:35;;;;;;;7.05;6.95;;;;;;;;;;4161466;28;20417;-60
2023/04/22 05:55:55;;;;;;;8.07;7.97;;;;;;;;;;4162804;28;20081;-60
2023/04/22 05:58:16;;;;;;;7.25;7.15;;;;;;;;;;4161174;28;20237;-60
2023/04/22 06:00:36;;;;;;;7.38;7.18;;;;;;;;;;4153679;28;20373;-60
2023/04/22 06:02:56;;;;;;;8.50;8.07;;;;;;;;;;4159784;28;20073;-61
2023/04/22 06:05:17;;;;;;;7.28;7.18;;;;;;;;;;4165371;28;20060;-61
2023/04/22 06:07:37;;;;;;;9.00;8.65;;;;;;;;;;4155443;28;20244;-61
2023/04/22 06:09:57;;;;;;;10.23;9.82;;;;;;;;;;4155993;28;20049;-60
2023/04/22 06:12:27;;;;;;;9.48;9.18;;;;;;;;;;4161617;28;20089;-60
2023/04/22 06:14:47;;;;;;;9.70;9.40;;;;;;;;;;4162102;28;20236;-61
2023/04/22 06:17:08;;;;;;;8.63;8.25;;;;;;;;;;4155029;28;20065;-61
2023/04/22 06:19:28;;;;;;;9.38;8.88;;;;;;;;;;4162973;28;20065;-69
2023/04/22 06:21:48;;;;;;;7.35;7.25;;;;;;;;;;4162713;28;20088;-69
2023/04/22 06:24:09;;;;;;;6.68;6.50;;;;;;;;;;4154830;28;20046;-69
2023/04/22 06:26:30;;;;;;;7.35;7.05;;;;;;;;;;4159411;28;20053;-69
2023/04/22 06:28:50;;;;;;;6.55;6.45;;;;;;;;;;4159667;28;20057;-69
2023/04/22 06:31:11;;;;;;;6.40;6.00;;;;;;;;;;4153875;28;20274;-69
2023/04/22 06:33:31;;;;;;;6.18;5.78;;;;;;;;;;4149516;28;20053;-69
2023/04/22 06:35:51;;;;;;;4.70;4.60;;;;;;;;;;4152810;28;20044;-69
2023/04/22 06:38:11;;;;;;;3.72;3.63;;;;;;;;;;4156805;28;20053;-69
2023/04/22 06:40:32;;;;;;;4.68;4.43;;;;;;;;;;4152894;28;20050;-69
2023/04/22 06:42:52;;;;;;;4.72;4.63;;;;;;;;;;4148939;28;20288;-69
2023/04/22 06:45:12;;;;;;;5.13;5.03;;;;;;;;;;4153646;28;20045;-69
2023/04/22 06:47:32;;;;;;;4.80;4.70;;;;;;;;;;4158925;28;20053;-69
2023/04/22 06:49:52;;;;;;;4.57;4.38;;;;;;;;;;4154154;28;20054;-69
2023/04/22 06:52:13;;;;;;;3.60;3.40;;;;;;;;;;4152903;28;20106;-69
2023/04/22 06:54:34;;;;;;;4.15;4.05;;;;;;;;;;4156897;28;20065;-69
2023/04/22 06:56:55;;;;;;;3.50;3.30;;;;;;;;;;4157432;28;20094;-69
2023/04/22 06:59:15;;;;;;;4.57;4.20;;;;;;;;;;4156429;28;20088;-69
2023/04/22 07:01:35;;;;;;;3.60;3.60;;;;;;;;;;4155329;28;20108;-69
2023/04/22 07:03:56;;;;;;;4.60;4.50;;;;;;;;;;4157506;28;20425;-70
2023/04/22 07:06:16;;;;;;;4.43;4.22;;;;;;;;;;4159559;28;20244;-70
2023/04/22 07:08:36;;;;;;;4.75;4.65;;;;;;;;;;4162101;28;20265;-69
2023/04/22 07:10:57;;;;;;;5.05;4.95;;;;;;;;;;4161751;28;20062;-69
2023/04/22 07:13:17;;;;;;;4.15;4.05;;;;;;;;;;4158674;28;20407;-69
2023/04/22 07:15:37;;;;;;;4.32;4.22;;;;;;;;;;4149840;28;20096;-69
2023/04/22 07:17:58;;;;;;;3.65;3.65;;;;;;;;;;4158626;28;20057;-70
2023/04/22 07:20:18;;;;;;;3.85;3.65;;;;;;;;;;4157007;28;20164;-70
2023/04/22 07:22:38;;;;;;;3.90;3.90;;;;;;;;;;4146772;28;20113;-70
2023/04/22 07:24:59;;;;;;;3.30;3.20;;;;;;;;;;4158887;28;20077;-70
2023/04/22 07:27:19;;;;;;;2.90;2.80;;;;;;;;;;4160110;28;20428;-70
2023/04/22 07:29:39;;;;;;;3.13;3.13;;;;;;;;;;4162471;28;20088;-70
2023/04/22 07:32:00;;;;;;;4.07;3.88;;;;;;;;;;4157498;28;20045;-70
2023/04/22 07:34:20;;;;;;;3.38;3.38;;;;;;;;;;4155799;28;20156;-70
2023/04/22 07:36:41;;;;;;;3.60;3.50;;;;;;;;;;4160907;28;20064;-70
2023/04/22 07:39:01;;;;;;;3.13;3.13;;;;;;;;;;4157616;28;20053;-69
2023/04/22 07:41:21;;;;;;;2.78;2.78;;;;;;;;;;4159965;28;20095;-69
2023/04/22 07:43:41;;;;;;;1.90;1.90;;;;;;;;;;4156789;28;20084;-69
2023/04/22 07:46:01;;;;;;;2.13;2.13;;;;;;;;;;4162632;28;20044;-69
2023/04/22 07:48:21;;;;;;;2.40;2.40;;;;;;;;;;4158914;28;20048;-69
2023/04/22 07:50:41;;;;;;;2.40;2.40;;;;;;;;;;4163231;28;20359;-69
2023/04/22 07:53:01;;;;;;;2.85;2.85;;;;;;;;;;4158747;28;20049;-69
2023/04/22 07:55:21;;;;;;;2.40;2.40;;;;;;;;;;4159802;28;20048;-69
2023/04/22 07:57:42;;;;;;;2.78;2.75;;;;;;;;;;4163066;28;20052;-70
2023/04/22 08:00:02;;;;;;;2.65;2.55;;;;;;;;;;4154539;28;20057;-69
2023/04/22 08:02:22;;;;;;;3.20;3.13;;;;;;;;;;4155435;28;20380;-70
2023/04/22 08:04:43;;;;;;;2.63;2.63;;;;;;;;;;4162726;28;20089;-62
2023/04/22 08:07:03;;;;;;;2.80;2.80;;;;;;;;;;4156810;28;20049;-62
2023/04/22 08:09:43;;;;;;;2.75;2.55;;;;;;;;;;4155668;28;20372;-62
2023/04/22 08:12:03;;;;;;;2.70;2.50;;;;;;;;;;4165643;28;20104;-62
2023/04/22 08:14:24;;;;;;;2.63;2.42;;;;;;;;;;4163697;28;20065;-62
2023/04/22 08:16:44;;;;;;;1.85;1.85;;;;;;;;;;4158292;28;20360;-62
2023/04/22 08:19:05;;;;;;;2.33;2.33;;;;;;;;;;4158916;28;20258;-62
2023/04/22 08:21:26;;;;;;;2.05;1.95;;;;;;;;;;4165117;28;20064;-62
2023/04/22 08:23:46;;;;;;;1.90;1.90;;;;;;;;;;4165820;28;20044;-62
2023/04/22 08:26:07;;;;;;;2.67;2.65;;;;;;;;;;4163584;28;20052;-62
2023/04/22 08:28:27;;;;;;;2.38;2.28;;;;;;;;;;4159675;28;20364;-62
2023/04/22 08:30:47;;;;;;;2.10;2.10;;;;;;;;;;4155590;28;20061;-62
2023/04/22 08:33:07;;;;;;;2.00;1.90;;;;;;;;;;4159916;28;20053;-62
2023/04/22 08:35:27;;;;;;;1.50;1.50;;;;;;;;;;4159103;28;20087;-62
2023/04/22 08:37:47;;;;;;;2.10;2.10;;;;;;;;;;4159320;28;20237;-63
2023/04/22 08:40:07;;;;;;;1.70;1.70;;;;;;;;;;4158893;28;20056;-63
2023/04/22 08:42:29;;;;;;;1.60;1.60;;;;;;;;;;4162413;28;20052;-63
2023/04/22 08:44:49;;;;;;;1.20;1.20;;;;;;;;;;4162173;28;20240;-63
2023/04/22 08:47:09;;;;;;;1.10;1.10;;;;;;;;;;4162151;28;20057;-63
2023/04/22 08:49:30;;;;;;;1.10;1.10;;;;;;;;;;4160125;28;20044;-63
2023/04/22 08:51:51;;;;;;;1.10;1.10;;;;;;;;;;4159335;28;20049;-63
2023/04/22 08:54:12;;;;;;;1.30;1.30;;;;;;;;;;4153688;28;20049;-63
2023/04/22 08:56:33;;;;;;;1.10;1.10;;;;;;;;;;4158981;28;20237;-63
2023/04/22 08:58:53;;;;;;;1.40;1.40;;;;;;;;;;4157482;28;20288;-63
2023/04/22 09:01:16;;;;;;;1.20;1.20;;;;;;;;;;4158734;28;20053;-63
2023/04/22 09:03:38;;;;;;;1.40;1.30;;;;;;;;;;4156366;28;20082;-63
2023/04/22 09:05:59;;;;;;;1.45;1.45;;;;;;;;;;4160736;28;20269;-63
2023/04/22 09:08:19;;;;;;;1.10;1.10;;;;;;;;;;4157298;28;20048;-63
2023/04/22 09:10:39;;;;;;;1.42;1.42;;;;;;;;;;4159343;28;20048;-63
2023/04/22 09:13:00;;;;;;;1.40;1.40;;;;;;;;;;4162473;28;20094;-63
2023/04/22 09:15:21;;;;;;;1.10;1.10;;;;;;;;;;4161845;28;20085;-63
2023/04/22 09:17:42;;;;;;;0.90;0.90;;;;;;;;;;4159156;28;20049;-63
2023/04/22 09:20:03;;;;;;;0.80;0.80;;;;;;;;;;4161451;28;20364;-63
2023/04/22 09:22:23;;;;;;;0.90;0.90;;;;;;;;;;4164844;28;20367;-63
2023/04/22 09:24:49;;;;;;;0.90;0.90;;;;;;;;;;4162012;28;20089;-64
2023/04/22 09:27:10;;;;;;;0.90;0.90;;;;;;;;;;4156350;28;20041;-63
2023/04/22 09:29:30;;;;;;;1.33;1.33;;;;;;;;;;4162810;28;20134;-63
2023/04/22 09:31:50;;;;;;;1.40;0.88;;;;;;;;;;4158347;28;20044;-63
2023/04/22 09:34:10;;;;;;;0.82;0.82;;;;;;;;;;4153080;28;20372;-63
2023/04/22 09:36:36;;;;;;;0.80;0.80;;;;;;;;;;4152747;28;20052;-63
2023/04/22 09:39:03;;;;;;;0.80;0.80;;;;;;;;;;4159539;28;20092;-64
2023/04/22 09:41:27;;;;;;;0.80;0.80;;;;;;;;;;4154145;28;20148;-63
2023/04/22 09:43:47;;;;;;;0.80;0.80;;;;;;;;;;4151964;28;20051;-63
2023/04/22 09:46:09;;;;;;;0.80;0.80;;;;;;;;;;4150007;28;20056;-63
2023/04/22 09:48:30;;;;;;;0.80;0.80;;;;;;;;;;4155327;28;20057;-64
2023/04/22 09:50:51;;;;;;;5.65;1.52;;;;;;;;;;4154314;28;20412;-63
2023/04/22 09:53:15;;;;;;;0.80;0.80;;;;;;;;;;4149135;28;20126;-63
2023/04/22 09:55:36;;;;;;;0.80;0.80;;;;;;;;;;4153488;28;20100;-63
2023/04/22 09:57:57;;;;;;;0.80;0.80;;;;;;;;;;4161022;28;20049;-63
2023/04/22 10:00:17;;;;;;;0.70;0.70;;;;;;;;;;4158275;28;20039;-62
2023/04/22 10:02:38;;;;;;;0.80;0.80;;;;;;;;;;4156588;28;20059;-63
2023/04/22 10:04:59;;;;;;;0.80;0.80;;;;;;;;;;4161740;28;20073;-63
2023/04/22 10:07:19;;;;;;;0.80;0.80;;;;;;;;;;4165689;28;20106;-63
2023/04/22 10:09:40;;;;;;;0.70;0.70;;;;;;;;;;4157277;28;20246;-63
2023/04/22 10:12:02;;;;;;;0.70;0.70;;;;;;;;;;4157291;28;20368;-64
2023/04/22 10:14:22;;;;;;;0.80;0.80;;;;;;;;;;4164124;28;20057;-63
2023/04/22 10:16:45;;;;;;;1.65;0.70;;;;;;;;;;4166256;28;20233;-63
2023/04/22 10:19:05;;;;;;;;;;;;;;;;;;4156918;28;20061;-64
2023/04/22 10:21:25;;;;;;;0.80;0.80;;;;;;;;;;4158155;28;19977;-63
2023/04/22 10:23:47;;;;;;;0.70;0.70;;;;;;;;;;4166948;28;20379;-63
2023/04/22 10:26:07;;;;;;;0.77;0.77;;;;;;;;;;4158991;28;20050;-64
2023/04/22 10:28:29;;;;;;;0.70;0.70;;;;;;;;;;4160346;28;20054;-63
2023/04/22 10:30:49;;;;;;;1.13;0.70;;;;;;;;;;4158059;28;20360;-63
2023/04/22 10:33:22;;;;;;;0.70;0.70;;;;;;;;;;4155044;28;20376;-64
2023/04/22 10:36:02;;;;;;;0.80;0.80;;;;;;;;;;4151118;28;20056;-64
2023/04/22 10:38:23;;;;;;;0.70;0.70;;;;;;;;;;4156417;28;20064;-64
2023/04/22 10:40:58;;;;;;;0.80;0.80;;;;;;;;;;4160751;28;20053;-64
2023/04/22 10:43:20;;;;;;;0.80;0.80;;;;;;;;;;4152772;28;20053;-64
2023/04/22 10:45:40;;;;;;;0.80;0.80;;;;;;;;;;4151957;28;20148;-64
2023/04/22 10:48:03;;;;;;;0.93;0.93;;;;;;;;;;4156182;28;20379;-64
2023/04/22 10:50:23;;;;;;;0.80;0.80;;;;;;;;;;4156379;28;20383;-64
2023/04/22 10:52:45;;;;;;;0.80;0.80;;;;;;;;;;4155065;28;20079;-64
2023/04/22 10:55:05;;;;;;;1.10;1.10;;;;;;;;;;4153209;28;20057;-63
2023/04/22 10:57:34;;;;;;;1.10;1.00;;;;;;;;;;4157878;28;20115;-64
2023/04/22 10:59:57;;;;;;;0.90;0.90;;;;;;;;;;4158233;28;20053;-64
2023/04/22 11:02:17;;;;;;;;;;;;;;;;;;4160225;28;20062;-64
2023/04/22 11:04:38;;;;;;;0.80;0.80;;;;;;;;;;4155506;28;19924;-65
2023/04/22 11:07:19;;;;;;;0.90;0.90;;;;;;;;;;4162242;28;20157;-64
2023/04/22 11:09:39;;;;;;;1.48;0.90;;;;;;;;;;4162302;28;20099;-64
2023/04/22 11:12:19;;;;;;;0.90;0.90;;;;;;;;;;4161185;28;20047;-64
2023/04/22 11:14:40;;;;;;;0.90;0.90;;;;;;;;;;4159957;28;20292;-64
2023/04/22 11:17:00;;;;;;;0.90;0.90;;;;;;;;;;4161816;28;20088;-64
2023/04/22 11:19:21;;;;;;;0.90;0.90;;;;;;;;;;4158572;28;20237;-64
2023/04/22 11:21:41;;;;;;;0.90;0.90;;;;;;;;;;4155134;28;20134;-64
2023/04/22 11:24:04;;;;;;;1.00;1.00;;;;;;;;;;4163653;28;20065;-63
2023/04/22 11:26:34;;;;;;;0.90;0.90;;;;;;;;;;4165021;28;20049;-64
2023/04/22 11:28:59;;;;;;;0.90;0.90;;;;;;;;;;4136544;28;20049;-64
2023/04/22 11:31:19;;;;;;;1.75;0.90;;;;;;;;;;4163784;28;20113;-64
2023/04/22 11:33:40;;;;;;;1.00;1.00;;;;;;;;;;4152857;28;20091;-64
2023/04/22 11:36:00;;;;;;;0.90;0.90;;;;;;;;;;4159372;28;20116;-64
2023/04/22 11:38:20;;;;;;;0.80;0.80;;;;;;;;;;4162346;28;20046;-64
2023/04/22 11:40:41;;;;;;;0.80;0.80;;;;;;;;;;4161693;28;20061;-64
2023/04/22 11:43:07;;;;;;;0.90;0.90;;;;;;;;;;4156805;28;20106;-65
2023/04/22 11:45:28;;;;;;;0.90;0.90;;;;;;;;;;4160713;28;20057;-65
2023/04/22 11:47:50;;;;;;;0.90;0.90;;;;;;;;;;4161223;28;20287;-64
2023/04/22 11:50:12;;;;;;;0.80;0.80;;;;;;;;;;4159361;28;20067;-64
2023/04/22 11:52:51;;;;;;;0.80;0.80;;;;;;;;;;4162377;28;20237;-64
2023/04/22 11:55:12;;;;;;;1.20;0.80;;;;;;;;;;4162571;28;20084;-65
2023/04/22 11:57:35;;;;;;;1.58;0.70;;;;;;;;;;4158166;28;20077;-64
2023/04/22 11:59:58;;;;;;;0.82;0.82;;;;;;;;;;4161274;28;20049;-63
2023/04/22 12:02:18;;;;;;;0.80;0.80;;;;;;;;;;4168762;28;20233;-64
2023/04/22 12:04:39;;;;;;;0.85;0.85;;;;;;;;;;4162471;28;20421;-64
2023/04/22 12:06:59;;;;;;;0.80;0.80;;;;;;;;;;4160921;28;20048;-65
2023/04/22 12:09:24;;;;;;;0.85;0.82;;;;;;;;;;4157877;28;20061;-65
2023/04/22 12:11:45;;;;;;;0.85;0.85;;;;;;;;;;4158343;28;20073;-64
2023/04/22 12:14:06;;;;;;;0.90;0.90;;;;;;;;;;4153856;28;20052;-64
2023/04/22 12:16:26;;;;;;;1.08;0.80;;;;;;;;;;4167664;28;20084;-64
2023/04/22 12:18:50;;;;;;;0.80;0.80;;;;;;;;;;4159852;28;20076;-64
2023/04/22 12:21:11;;;;;;;2.45;0.95;;;;;;;;;;4160719;28;20237;-64
2023/04/22 12:23:41;;;;;;;0.90;0.90;;;;;;;;;;4157485;28;20076;-64
2023/04/22 12:26:01;;;;;;;0.85;0.85;;;;;;;;;;4168544;28;20114;-64
2023/04/22 12:28:21;;;;;;;2.58;0.80;;;;;;;;;;4164064;28;20087;-64
2023/04/22 12:30:42;;;;;;;1.30;0.80;;;;;;;;;;4158956;28;20084;-64
2023/04/22 12:33:02;;;;;;;0.80;0.80;;;;;;;;;;4156737;28;20044;-64
2023/04/22 12:35:22;;;;;;;0.77;0.77;;;;;;;;;;4155129;28;20092;-64
2023/04/22 12:37:42;;;;;;;0.80;0.80;;;;;;;;;;4156332;28;20076;-64
2023/04/22 12:40:04;;;;;;;0.80;0.80;;;;;;;;;;4163243;28;20048;-64
2023/04/22 12:42:24;;;;;;;0.70;0.70;;;;;;;;;;4160238;28;20049;-64
2023/04/22 12:44:45;;;;;;;0.70;0.70;;;;;;;;;;4156306;28;20076;-64
2023/04/22 12:47:06;;;;;;;0.80;0.80;;;;;;;;;;4164296;28;20073;-64
2023/04/22 12:49:26;;;;;;;0.88;0.88;;;;;;;;;;4164009;28;20052;-64
2023/04/22 12:51:46;;;;;;;0.73;0.73;;;;;;;;;;4163527;28;20076;-65
2023/04/22 12:54:07;;;;;;;0.80;0.80;;;;;;;;;;4163640;28;20233;-64
2023/04/22 12:56:27;;;;;;;0.80;0.80;;;;;;;;;;4159110;28;20372;-64
2023/04/22 12:58:48;;;;;;;2.10;0.80;;;;;;;;;;4154332;28;20370;-64
2023/04/22 13:01:08;;;;;;;0.70;0.70;;;;;;;;;;4160128;28;20064;-64
2023/04/22 13:03:29;;;;;;;0.82;0.82;;;;;;;;;;4163296;28;20052;-64
2023/04/22 13:05:49;;;;;;;0.80;0.80;;;;;;;;;;4156444;28;20045;-64
2023/04/22 13:08:09;;;;;;;0.80;0.80;;;;;;;;;;4160523;28;20285;-65
2023/04/22 13:10:29;;;;;;;0.80;0.80;;;;;;;;;;4160419;28;20112;-64
2023/04/22 13:12:49;;;;;;;0.90;0.90;;;;;;;;;;4160589;28;20081;-64
2023/04/22 13:15:10;;;;;;;0.80;0.80;;;;;;;;;;4158454;28;20083;-64
2023/04/22 13:17:30;;;;;;;0.80;0.80;;;;;;;;;;4165774;28;20084;-64
2023/04/22 13:19:51;;;;;;;0.80;0.80;;;;;;;;;;4160686;28;20052;-64
2023/04/22 13:22:11;;;;;;;1.35;0.80;;;;;;;;;;4157733;28;20060;-64
2023/04/22 13:24:31;;;;;;;0.80;0.80;;;;;;;;;;4162939;28;20095;-64
2023/04/22 13:26:51;;;;;;;1.33;0.80;;;;;;;;;;4167712;28;20057;-64
2023/04/22 13:29:12;;;;;;;0.80;0.80;;;;;;;;;;4157527;28;20085;-64
2023/04/22 13:31:34;;;;;;;0.77;0.77;;;;;;;;;;4158898;28;20053;-64
2023/04/22 13:33:54;;;;;;;0.80;0.80;;;;;;;;;;4160257;28;20057;-64
2023/04/22 13:36:14;;;;;;;0.80;0.80;;;;;;;;;;4157461;28;20109;-63
2023/04/22 13:38:35;;;;;;;0.85;0.85;;;;;;;;;;4154471;28;20052;-64
2023/04/22 13:40:55;;;;;;;0.80;0.80;;;;;;;;;;4158812;28;20048;-64
2023/04/22 13:43:15;;;;;;;0.82;0.82;;;;;;;;;;4158245;28;20290;-64
2023/04/22 13:45:35;;;;;;;4.10;0.90;;;;;;;;;;4156700;28;20146;-64
2023/04/22 13:47:56;;;;;;;0.80;0.80;;;;;;;;;;4148844;28;20069;-64
2023/04/22 13:50:16;;;;;;;0.80;0.80;;;;;;;;;;4152790;28;20380;-63
2023/04/22 13:52:37;;;;;;;0.90;0.90;;;;;;;;;;4158675;28;20260;-63
2023/04/22 13:54:57;;;;;;;1.00;1.00;;;;;;;;;;4155146;28;20249;-64
2023/04/22 13:57:17;;;;;;;1.80;0.90;;;;;;;;;;4150681;28;20066;-64
2023/04/22 13:59:37;;;;;;;0.90;0.90;;;;;;;;;;4158728;28;20052;-63
2023/04/22 14:01:58;;;;;;;0.90;0.90;;;;;;;;;;4157560;28;20053;-63
2023/04/22 14:04:18;;;;;;;0.80;0.80;;;;;;;;;;4153530;28;20238;-63